Time;durP1;ratioP1;P1;durP2;ratioP2;P2;SDS_P1;SDS_P2;PMS_P1;PMS_P2;Temp;Humidity;BMP_temperature;BMP_pressure;BME280_temperature;BME280_humidity;BME280_pressure;Samples;Min_cycle;Max_cycle;Signal;HPM_P1;HPM_P2
2021/11/16 00:01:59;;;;;;;;;;;4.30;99.90;;;;;;5101640;28;20020;-62
2021/11/16 00:04:25;;;;;;;20.42;12.00;;;4.70;99.90;;;;;;5101353;28;19908;-63
2021/11/16 00:06:52;;;;;;;;;;;5.40;99.90;;;;;;5101524;28;20016;-62
2021/11/16 00:09:19;;;;;;;21.75;13.50;;;4.90;99.90;;;;;;5101128;28;19910;-63
2021/11/16 00:11:45;;;;;;;21.27;13.80;;;4.20;99.90;;;;;;5101116;28;20484;-63
2021/11/16 00:14:12;;;;;;;19.08;12.70;;;4.40;99.90;;;;;;5101497;28;20035;-63
2021/11/16 00:16:39;;;;;;;19.70;12.45;;;;;;;;;;5100999;28;20058;-63
2021/11/16 00:19:08;;;;;;;19.98;12.65;;;4.40;99.90;;;;;;5101223;28;20027;-62
2021/11/16 00:21:34;;;;;;;24.58;14.55;;;4.30;99.90;;;;;;5100534;28;20020;-63
2021/11/16 00:24:07;;;;;;;;;;;4.30;99.90;;;;;;5101278;28;20076;-63
2021/11/16 00:26:33;;;;;;;26.83;14.48;;;3.90;99.90;;;;;;5101000;28;19904;-63
2021/11/16 00:28:59;;;;;;;;;;;4.80;99.90;;;;;;5101297;28;20786;-63
2021/11/16 00:31:25;;;;;;;22.27;12.75;;;4.50;99.90;;;;;;5101539;28;19941;-62
2021/11/16 00:33:50;;;;;;;;;;;4.60;99.90;;;;;;5101197;28;20023;-62
2021/11/16 00:36:16;;;;;;;17.08;11.05;;;4.70;99.90;;;;;;5099073;28;19957;-62
2021/11/16 00:38:43;;;;;;;20.45;11.45;;;4.50;99.90;;;;;;5100524;28;20545;-63
2021/11/16 00:41:09;;;;;;;16.95;10.18;;;4.80;99.90;;;;;;5100397;28;20028;-62
2021/11/16 00:43:36;;;;;;;18.48;12.10;;;4.80;99.90;;;;;;5099167;28;20100;-63
2021/11/16 00:46:02;;;;;;;15.82;9.88;;;4.70;99.90;;;;;;5100367;28;20012;-63
2021/11/16 00:48:28;;;;;;;15.75;11.02;;;4.60;99.90;;;;;;5100523;28;20493;-63
2021/11/16 00:50:57;;;;;;;19.88;12.05;;;4.30;99.90;;;;;;5100049;28;20078;-62
2021/11/16 00:53:25;;;;;;;19.35;11.32;;;4.80;99.90;;;;;;5100297;28;20020;-63
2021/11/16 00:55:51;;;;;;;20.23;11.02;;;4.70;99.90;;;;;;5100192;28;20511;-63
2021/11/16 00:58:17;;;;;;;22.02;13.45;;;4.80;99.90;;;;;;5100353;28;20500;-63
2021/11/16 01:00:43;;;;;;;22.95;14.77;;;4.90;99.90;;;;;;5100144;28;20480;-62
2021/11/16 01:03:13;;;;;;;;;;;4.70;99.90;;;;;;5100414;28;20028;-63
2021/11/16 01:05:40;;;;;;;17.83;10.88;;;5.20;99.90;;;;;;5085931;28;20423;-63
2021/11/16 01:08:07;;;;;;;21.95;11.65;;;4.60;99.90;;;;;;5099909;28;20076;-62
2021/11/16 01:10:34;;;;;;;21.17;13.60;;;4.60;99.90;;;;;;5100149;28;20028;-63
2021/11/16 01:13:00;;;;;;;18.27;11.77;;;5.10;99.90;;;;;;5099903;28;20073;-63
2021/11/16 01:15:26;;;;;;;;;;;5.20;99.90;;;;;;5099122;28;20088;-63
2021/11/16 01:17:52;;;;;;;22.83;12.18;;;4.90;99.90;;;;;;5099774;28;19904;-63
2021/11/16 01:20:21;;;;;;;19.80;12.48;;;5.10;99.90;;;;;;5099754;28;20024;-62
2021/11/16 01:22:49;;;;;;;21.10;12.63;;;4.90;99.90;;;;;;5099560;28;20028;-62
2021/11/16 01:25:16;;;;;;;20.90;12.82;;;5.30;99.90;;;;;;5099778;28;20012;-63
2021/11/16 01:27:42;;;;;;;22.35;13.35;;;4.80;99.90;;;;;;5099879;28;20119;-63
2021/11/16 01:30:12;;;;;;;21.88;12.30;;;4.90;99.90;;;;;;5099768;28;20519;-62
2021/11/16 01:32:42;;;;;;;25.35;14.00;;;4.90;99.90;;;;;;5099899;28;20439;-63
2021/11/16 01:35:09;;;;;;;30.63;15.75;;;5.00;99.90;;;;;;5099577;28;20035;-63
2021/11/16 01:37:36;;;;;;;20.77;11.05;;;5.60;99.90;;;;;;5099348;28;20032;-63
2021/11/16 01:40:05;;;;;;;23.63;14.15;;;5.50;99.90;;;;;;5099448;28;20078;-62
2021/11/16 01:42:32;;;;;;;23.25;14.48;;;5.60;99.90;;;;;;5099290;28;20016;-63
2021/11/16 01:44:58;;;;;;;22.40;12.18;;;6.20;99.90;;;;;;5099578;28;20457;-63
2021/11/16 01:47:24;;;;;;;28.63;15.63;;;5.70;99.90;;;;;;5099373;28;20495;-63
2021/11/16 01:49:50;;;;;;;;;;;5.60;99.90;;;;;;5099791;28;20028;-62
2021/11/16 01:52:16;;;;;;;34.00;16.92;;;5.60;99.90;;;;;;5099034;28;19911;-62
2021/11/16 01:54:41;;;;;;;;;;;6.00;99.90;;;;;;5099554;28;20028;-63
2021/11/16 01:57:07;;;;;;;24.42;14.48;;;5.90;99.90;;;;;;5099186;28;19904;-63
2021/11/16 01:59:34;;;;;;;22.77;12.70;;;6.00;99.90;;;;;;5099296;28;20028;-63
2021/11/16 02:02:01;;;;;;;21.40;12.85;;;6.40;99.90;;;;;;5098877;28;20016;-63
2021/11/16 02:04:27;;;;;;;21.20;12.38;;;6.10;99.90;;;;;;5098931;28;20087;-63
2021/11/16 02:06:53;;;;;;;;;;;6.30;99.90;;;;;;5099134;28;20495;-63
2021/11/16 02:09:19;;;;;;;20.55;12.43;;;6.00;99.90;;;;;;5098860;28;19904;-63
2021/11/16 02:11:45;;;;;;;16.90;11.45;;;6.40;99.90;;;;;;5098752;28;20058;-63
2021/11/16 02:14:14;;;;;;;26.55;15.65;;;6.30;99.90;;;;;;5099133;28;20054;-63
2021/11/16 02:16:42;;;;;;;24.63;15.02;;;6.30;99.90;;;;;;5098648;28;20026;-63
2021/11/16 02:19:11;;;;;;;27.65;16.60;;;6.30;99.90;;;;;;5098932;28;20472;-63
2021/11/16 02:21:37;;;;;;;28.98;16.63;;;6.40;99.90;;;;;;5098216;28;20032;-63
2021/11/16 02:24:05;;;;;;;25.73;14.05;;;6.80;99.90;;;;;;5098514;28;20020;-63
2021/11/16 02:26:32;;;;;;;21.77;13.40;;;6.40;99.90;;;;;;5098439;28;20020;-63
2021/11/16 02:28:58;;;;;;;19.73;13.07;;;6.70;99.90;;;;;;5098633;28;20024;-63
2021/11/16 02:31:24;;;;;;;18.70;11.82;;;6.30;99.90;;;;;;5099072;28;20058;-63
2021/11/16 02:33:50;;;;;;;25.08;14.98;;;6.50;99.90;;;;;;5098519;28;20087;-63
2021/11/16 02:36:16;;;;;;;;;;;6.50;99.90;;;;;;5098452;28;20020;-63
2021/11/16 02:38:42;;;;;;;33.58;19.00;;;6.90;99.90;;;;;;5098403;28;19958;-63
2021/11/16 02:41:09;;;;;;;38.42;21.52;;;6.70;99.90;;;;;;5098229;28;20046;-63
2021/11/16 02:43:37;;;;;;;42.40;24.10;;;6.80;99.90;;;;;;5098191;28;20449;-63
2021/11/16 02:46:03;;;;;;;48.25;24.17;;;6.80;99.90;;;;;;5098543;28;20020;-63
2021/11/16 02:48:34;;;;;;;36.67;22.42;;;6.90;99.90;;;;;;5098141;28;20388;-63
2021/11/16 02:51:04;;;;;;;39.80;22.63;;;6.50;99.90;;;;;;5098091;28;20016;-63
2021/11/16 02:53:30;;;;;;;46.72;24.67;;;6.80;99.90;;;;;;5098058;28;20031;-63
2021/11/16 02:55:56;;;;;;;41.95;22.17;;;6.80;99.90;;;;;;5098009;28;20039;-63
2021/11/16 02:58:25;;;;;;;41.80;22.90;;;6.80;99.90;;;;;;5097843;28;20024;-63
2021/11/16 03:00:56;;;;;;;43.35;23.08;;;6.60;99.90;;;;;;5097725;28;20468;-63
2021/11/16 03:03:23;;;;;;;42.88;21.70;;;6.80;99.90;;;;;;5097881;28;20028;-63
2021/11/16 03:05:49;;;;;;;39.22;21.30;;;6.60;99.90;;;;;;5097736;28;20020;-63
2021/11/16 03:08:23;;;;;;;46.20;24.05;;;6.70;99.90;;;;;;5097606;28;20055;-63
2021/11/16 03:10:52;;;;;;;40.08;22.40;;;6.70;99.90;;;;;;5096325;28;20031;-63
2021/11/16 03:13:19;;;;;;;43.80;22.02;;;6.60;99.90;;;;;;5097684;28;20089;-63
2021/11/16 03:15:45;;;;;;;39.60;23.63;;;6.50;99.90;;;;;;5097784;28;20114;-63
2021/11/16 03:18:12;;;;;;;43.47;22.25;;;6.80;99.90;;;;;;5096289;28;20024;-63
2021/11/16 03:20:38;;;;;;;44.83;24.27;;;6.80;99.90;;;;;;5097515;28;20057;-63
2021/11/16 03:23:12;;;;;;;38.80;22.08;;;6.90;99.90;;;;;;5097165;28;20052;-63
2021/11/16 03:25:44;;;;;;;35.22;19.27;;;7.10;99.90;;;;;;5097750;28;20476;-65
2021/11/16 03:28:11;;;;;;;37.08;20.42;;;7.10;99.90;;;;;;5097512;28;20019;-63
2021/11/16 03:30:38;;;;;;;34.28;20.20;;;7.00;99.90;;;;;;5098077;28;20039;-63
2021/11/16 03:33:04;;;;;;;36.65;18.52;;;7.00;99.90;;;;;;5097439;28;20031;-63
2021/11/16 03:35:31;;;;;;;34.17;20.77;;;6.90;99.90;;;;;;5097377;28;20020;-63
2021/11/16 03:37:59;;;;;;;39.70;22.60;;;7.00;99.90;;;;;;5097251;28;20043;-63
2021/11/16 03:40:27;;;;;;;46.65;22.15;;;7.20;99.90;;;;;;5097637;28;20032;-63
2021/11/16 03:42:54;;;;;;;36.60;19.63;;;7.10;99.90;;;;;;5097390;28;20026;-63
2021/11/16 03:45:23;;;;;;;35.85;20.67;;;7.10;99.90;;;;;;5097343;28;20020;-63
2021/11/16 03:47:50;;;;;;;41.90;23.63;;;6.70;99.90;;;;;;5097560;28;20016;-63
2021/11/16 03:50:19;;;;;;;38.38;21.08;;;6.80;99.90;;;;;;5097068;28;20069;-63
2021/11/16 03:52:52;;;;;;;41.63;22.05;;;6.60;99.90;;;;;;5097266;28;20111;-63
2021/11/16 03:55:19;;;;;;;38.00;19.98;;;6.40;99.90;;;;;;5097221;28;20107;-63
2021/11/16 03:57:44;;;;;;;34.80;19.77;;;6.80;99.90;;;;;;5097336;28;20158;-63
2021/11/16 04:00:13;;;;;;;;;;;6.70;99.90;;;;;;5097591;28;20068;-63
2021/11/16 04:02:39;;;;;;;34.65;18.00;;;6.60;99.90;;;;;;5095992;28;19908;-63
2021/11/16 04:05:06;;;;;;;37.15;20.58;;;7.00;99.90;;;;;;5096942;28;20031;-63
2021/11/16 04:07:33;;;;;;;39.53;20.08;;;7.00;99.90;;;;;;5097284;28;20105;-63
2021/11/16 04:09:58;;;;;;;38.13;21.48;;;6.90;99.90;;;;;;5097090;28;20547;-63
2021/11/16 04:12:24;;;;;;;;;;;6.80;99.90;;;;;;5097693;28;20078;-63
2021/11/16 04:14:50;;;;;;;32.28;19.50;;;6.20;99.90;;;;;;5097068;28;19988;-63
2021/11/16 04:17:17;;;;;;;31.10;18.88;;;7.20;99.90;;;;;;5095791;28;20043;-63
2021/11/16 04:19:43;;;;;;;43.75;23.08;;;7.10;99.90;;;;;;5097175;28;20028;-63
2021/11/16 04:22:10;;;;;;;32.25;19.48;;;7.00;99.90;;;;;;5096789;28;20425;-63
2021/11/16 04:24:36;;;;;;;34.38;18.77;;;6.70;99.90;;;;;;5095473;28;20118;-63
2021/11/16 04:27:01;;;;;;;;;;;7.00;99.90;;;;;;5097541;28;20028;-63
2021/11/16 04:29:28;;;;;;;33.47;18.92;;;7.30;99.90;;;;;;5097009;28;19911;-63
2021/11/16 04:31:56;;;;;;;37.85;20.92;;;6.90;99.90;;;;;;5097733;28;20051;-63
2021/11/16 04:34:22;;;;;;;38.75;20.63;;;6.90;99.90;;;;;;5095594;28;20407;-63
2021/11/16 04:36:47;;;;;;;;;;;7.00;99.90;;;;;;5097262;28;20024;-63
2021/11/16 04:39:13;;;;;;;29.17;16.35;;;7.50;99.90;;;;;;5096758;28;20344;-63
2021/11/16 04:41:39;;;;;;;;;;;6.90;99.90;;;;;;5097479;28;20111;-63
2021/11/16 04:44:07;;;;;;;32.50;18.33;;;6.80;99.90;;;;;;5100788;28;19914;-63
2021/11/16 04:46:33;;;;;;;35.92;19.17;;;7.00;99.90;;;;;;5100503;28;20044;-63
2021/11/16 04:49:09;;;;;;;;;;;7.00;99.90;;;;;;5100872;28;20017;-63
2021/11/16 04:55:21;;;;;;;35.20;18.95;;;7.20;99.90;;;;;;5084396;28;20088;-63
2021/11/16 05:02:41;;;;;;;27.42;16.88;;;7.00;99.90;;;;;;5100367;28;20030;-62
2021/11/16 05:05:19;;;;;;;23.73;14.77;;;7.00;99.90;;;;;;5099862;28;20024;-63
2021/11/16 05:07:49;;;;;;;33.10;19.05;;;6.80;99.90;;;;;;5100134;28;20050;-62
2021/11/16 05:10:16;;;;;;;31.58;18.58;;;7.00;99.90;;;;;;5099907;28;20369;-63
2021/11/16 05:12:42;;;;;;;36.95;20.88;;;7.10;99.90;;;;;;5100080;28;20118;-62
2021/11/16 05:15:13;;;;;;;34.00;20.25;;;7.00;99.90;;;;;;5099816;28;20028;-62
2021/11/16 05:17:39;;;;;;;32.83;20.13;;;7.00;99.90;;;;;;5100265;28;20024;-62
2021/11/16 05:20:05;;;;;;;;;;;7.40;99.90;;;;;;5099992;28;20039;-63
2021/11/16 05:22:32;;;;;;;35.38;19.50;;;7.00;99.90;;;;;;5099805;28;19930;-62
2021/11/16 05:24:58;;;;;;;32.25;17.17;;;6.80;99.90;;;;;;5099627;28;20028;-62
2021/11/16 05:27:23;;;;;;;;;;;6.80;99.90;;;;;;5100344;28;20039;-62
2021/11/16 05:29:49;;;;;;;34.15;19.10;;;7.00;99.90;;;;;;5099734;28;19910;-62
2021/11/16 05:32:15;;;;;;;;;;;7.20;99.90;;;;;;5100876;28;20052;-62
2021/11/16 05:34:42;;;;;;;34.40;18.98;;;7.70;99.90;;;;;;5099568;28;20722;-62
2021/11/16 05:37:08;;;;;;;31.20;17.88;;;6.80;99.90;;;;;;5099684;28;20020;-62
2021/11/16 05:39:34;;;;;;;;;;;7.30;99.90;;;;;;5099743;28;20081;-62
2021/11/16 05:42:00;;;;;;;36.28;19.13;;;7.00;99.90;;;;;;5098106;28;19976;-62
2021/11/16 05:44:26;;;;;;;;;;;7.10;99.90;;;;;;5099767;28;20099;-62
2021/11/16 05:46:52;;;;;;;32.30;17.88;;;6.40;99.90;;;;;;5099703;28;19908;-62
2021/11/16 05:49:18;;;;;;;;;;;7.00;99.90;;;;;;5099591;28;20101;-63
2021/11/16 05:51:44;;;;;;;31.10;17.77;;;6.70;99.90;;;;;;5098894;28;19904;-62
2021/11/16 05:54:16;;;;;;;;;;;6.70;99.90;;;;;;5099750;28;20116;-62
2021/11/16 05:56:43;;;;;;;27.65;17.17;;;7.20;99.90;;;;;;5099311;28;19904;-62
2021/11/16 05:59:09;;;;;;;29.17;16.55;;;7.00;99.90;;;;;;5099085;28;20024;-63
2021/11/16 06:01:35;;;;;;;;;;;7.00;99.90;;;;;;5099639;28;20030;-63
2021/11/16 06:04:01;;;;;;;28.48;16.42;;;6.90;99.90;;;;;;5096096;28;19908;-62
2021/11/16 06:06:29;;;;;;;29.60;16.23;;;7.60;99.90;;;;;;5093303;28;20058;-62
2021/11/16 06:08:56;;;;;;;24.42;14.75;;;7.00;99.90;;;;;;5098218;28;20508;-63
2021/11/16 06:11:23;;;;;;;24.98;15.13;;;6.70;99.90;;;;;;5109960;28;20051;-63
2021/11/16 06:13:52;;;;;;;20.00;12.73;;;6.90;99.90;;;;;;5085240;28;20028;-63
2021/11/16 06:16:18;;;;;;;30.15;16.90;;;7.10;99.90;;;;;;5098948;28;20046;-63
2021/11/16 06:18:51;;;;;;;34.00;19.52;;;6.60;99.90;;;;;;5098487;28;20028;-63
2021/11/16 06:21:16;;;;;;;32.65;19.80;;;7.50;99.90;;;;;;5098356;28;20035;-63
2021/11/16 06:23:42;;;;;;;;;;;6.90;99.90;;;;;;5098769;28;20020;-63
2021/11/16 06:26:08;;;;;;;21.48;14.57;;;7.20;99.90;;;;;;5096772;28;20283;-63
2021/11/16 06:28:34;;;;;;;22.15;14.07;;;7.20;99.90;;;;;;5098665;28;20055;-63
2021/11/16 06:31:00;;;;;;;;;;;7.10;99.90;;;;;;5099544;28;20522;-63
2021/11/16 06:33:26;;;;;;;41.10;21.88;;;6.80;99.90;;;;;;5098584;28;19908;-63
2021/11/16 06:35:53;;;;;;;35.30;18.55;;;7.30;99.90;;;;;;5098873;28;20490;-63
2021/11/16 06:38:19;;;;;;;33.85;20.45;;;7.10;99.90;;;;;;5098835;28;20055;-63
2021/11/16 06:40:48;;;;;;;;;;;7.00;99.90;;;;;;5097734;28;20028;-63
2021/11/16 06:43:40;;;;;;;28.25;15.77;;;7.00;99.90;;;;;;5097168;28;19912;-63
2021/11/16 06:46:07;;;;;;;26.38;15.30;;;6.60;99.90;;;;;;5093031;28;20032;-63
2021/11/16 06:48:33;;;;;;;24.88;14.25;;;7.00;99.90;;;;;;5098197;28;20110;-63
2021/11/16 06:51:00;;;;;;;32.75;18.05;;;7.10;99.90;;;;;;5098255;28;20016;-63
2021/11/16 06:53:31;;;;;;;21.30;14.18;;;7.20;99.90;;;;;;5098001;28;20114;-63
2021/11/16 06:55:58;;;;;;;34.03;17.08;;;7.00;99.90;;;;;;5096838;28;20442;-63
2021/11/16 06:58:26;;;;;;;29.73;17.55;;;7.10;99.90;;;;;;5098019;28;20031;-63
2021/11/16 07:00:53;;;;;;;24.25;16.48;;;7.30;99.90;;;;;;5098215;28;20023;-63
2021/11/16 07:03:22;;;;;;;22.33;14.00;;;7.20;99.90;;;;;;5097532;28;20079;-63
2021/11/16 07:05:52;;;;;;;22.08;12.88;;;7.20;99.90;;;;;;5097635;28;20020;-63
2021/11/16 07:08:28;;;;;;;25.05;15.25;;;7.10;99.90;;;;;;5097712;28;20020;-63
2021/11/16 07:11:05;;;;;;;22.92;15.48;;;7.40;99.90;;;;;;5097890;28;20020;-63
2021/11/16 07:13:32;;;;;;;20.63;12.90;;;7.10;99.90;;;;;;5097734;28;20035;-63
2021/11/16 07:15:58;;;;;;;20.73;13.00;;;6.90;99.90;;;;;;5098036;28;20031;-63
2021/11/16 07:18:24;;;;;;;;;;;6.90;99.90;;;;;;5096782;28;20944;-63
2021/11/16 07:20:59;;;;;;;21.17;13.07;;;7.10;99.90;;;;;;5096219;28;19904;-63
2021/11/16 07:23:25;;;;;;;28.02;15.43;;;7.10;99.90;;;;;;5096165;28;20031;-63
2021/11/16 07:25:51;;;;;;;30.17;17.52;;;7.30;99.90;;;;;;5097658;28;20077;-63
2021/11/16 07:28:17;;;;;;;25.48;16.02;;;7.20;99.90;;;;;;5097689;28;20060;-63
2021/11/16 07:30:43;;;;;;;;;;;7.10;99.90;;;;;;5098995;28;20551;-63
2021/11/16 07:33:11;;;;;;;23.38;14.23;;;7.20;99.90;;;;;;5096244;28;20315;-63
2021/11/16 07:35:39;;;;;;;23.73;14.38;;;7.10;99.90;;;;;;5097477;28;20048;-63
2021/11/16 07:38:12;;;;;;;24.23;13.73;;;7.70;99.90;;;;;;5097604;28;20025;-63
2021/11/16 07:40:47;;;;;;;20.48;13.02;;;7.30;99.90;;;;;;5096127;28;20062;-63
2021/11/16 07:43:19;;;;;;;18.38;13.25;;;7.70;99.90;;;;;;5096057;28;20391;-63
2021/11/16 07:45:51;;;;;;;21.63;13.75;;;7.60;99.90;;;;;;5097443;28;20017;-63
2021/11/16 07:48:25;;;;;;;27.17;15.60;;;7.30;99.90;;;;;;5097720;28;20024;-63
2021/11/16 07:51:02;;;;;;;22.25;14.38;;;7.60;99.90;;;;;;5096986;28;20016;-63
2021/11/16 07:53:29;;;;;;;26.55;13.68;;;7.90;99.90;;;;;;5095912;28;20020;-63
2021/11/16 07:56:11;;;;;;;22.42;14.13;;;7.40;99.90;;;;;;5097677;28;20500;-63
2021/11/16 07:58:43;;;;;;;22.00;13.38;;;7.50;99.90;;;;;;5097251;28;20551;-63
2021/11/16 08:01:22;;;;;;;24.48;14.48;;;7.50;99.90;;;;;;5097664;28;20036;-63
2021/11/16 08:03:50;;;;;;;22.38;14.63;;;7.50;99.90;;;;;;5095772;28;20034;-63
2021/11/16 08:11:25;;;;;;;30.48;16.65;;;7.40;99.90;;;;;;5097379;28;20050;-63
2021/11/16 08:14:00;;;;;;;24.50;14.95;;;7.60;99.90;;;;;;5097205;28;20024;-63
2021/11/16 08:16:28;;;;;;;27.73;16.13;;;7.70;99.90;;;;;;5100041;28;20032;-63
2021/11/16 08:18:59;;;;;;;23.17;14.65;;;8.10;99.90;;;;;;5101346;28;20028;-63
2021/11/16 08:21:25;;;;;;;27.08;17.25;;;7.90;99.90;;;;;;5100697;28;20024;-63
2021/11/16 08:24:06;;;;;;;25.40;15.38;;;8.10;99.90;;;;;;5100706;28;20019;-63
2021/11/16 08:26:38;;;;;;;37.38;19.80;;;8.10;99.90;;;;;;5100797;28;20387;-63
2021/11/16 08:29:05;;;;;;;35.38;19.45;;;8.10;99.90;;;;;;5101050;28;20059;-63
2021/11/16 08:31:37;;;;;;;26.42;16.95;;;8.10;99.90;;;;;;5101489;28;20047;-63
2021/11/16 08:34:04;;;;;;;25.60;16.27;;;7.90;99.90;;;;;;5100866;28;20032;-63
2021/11/16 08:36:40;;;;;;;27.75;15.60;;;8.40;99.90;;;;;;5100837;28;20028;-63
2021/11/16 08:39:08;;;;;;;32.80;17.65;;;8.60;99.90;;;;;;5100637;28;20109;-63
2021/11/16 08:41:34;;;;;;;32.60;17.23;;;8.50;99.90;;;;;;5099358;28;20618;-63
2021/11/16 08:44:07;;;;;;;;;;;8.60;99.90;;;;;;5101072;28;20487;-63
2021/11/16 08:46:33;;;;;;;26.08;14.80;;;8.90;99.90;;;;;;5100828;28;19904;-63
2021/11/16 08:48:59;;;;;;;;;;;8.70;99.90;;;;;;5101084;28;20021;-63
2021/11/16 08:51:27;;;;;;;23.50;14.75;;;9.00;99.90;;;;;;5100400;28;19904;-63
2021/11/16 08:53:53;;;;;;;27.15;16.05;;;9.00;99.90;;;;;;5100394;28;20046;-63
2021/11/16 08:56:26;;;;;;;;;;;8.70;99.90;;;;;;5100925;28;20028;-63
2021/11/16 08:58:52;;;;;;;30.83;16.90;;;8.90;99.90;;;;;;5100233;28;19911;-63
2021/11/16 09:01:17;;;;;;;;;;;8.90;99.90;;;;;;5100755;28;20095;-63
2021/11/16 09:03:46;;;;;;;40.63;20.30;;;9.20;99.90;;;;;;5098804;28;19908;-63
2021/11/16 09:06:19;;;;;;;34.80;18.45;;;9.00;99.90;;;;;;5100107;28;20016;-63
2021/11/16 09:09:10;;;;;;;25.40;15.68;;;8.90;99.90;;;;;;5099924;28;20020;-63
2021/11/16 09:11:39;;;;;;;19.77;12.30;;;8.90;99.90;;;;;;5100071;28;20135;-63
2021/11/16 09:14:13;;;;;;;22.90;14.32;;;9.10;99.90;;;;;;5100165;28;20012;-63
2021/11/16 09:16:41;;;;;;;17.35;11.48;;;9.30;99.90;;;;;;5098762;28;20020;-63
2021/11/16 09:19:07;;;;;;;20.27;12.48;;;9.10;99.90;;;;;;5099969;28;20097;-64
2021/11/16 09:21:40;;;;;;;18.73;12.45;;;9.00;99.90;;;;;;5098151;28;20024;-63
2021/11/16 09:24:12;;;;;;;31.08;15.27;;;9.50;99.90;;;;;;5099978;28;20020;-63
2021/11/16 09:29:21;;;;;;;27.92;16.85;;;9.00;99.90;;;;;;5099671;28;20024;-63
2021/11/16 09:32:00;;;;;;;22.60;13.95;;;9.00;99.90;;;;;;5100600;28;20047;-63
2021/11/16 09:34:30;;;;;;;22.98;14.23;;;8.90;99.90;;;;;;5100095;28;20103;-63
2021/11/16 09:37:16;;;;;;;24.15;14.43;;;9.20;99.90;;;;;;5099888;28;20032;-63
2021/11/16 09:39:49;;;;;;;33.42;19.55;;;9.20;99.90;;;;;;5098279;28;20020;-63
2021/11/16 09:42:21;;;;;;;26.67;17.30;;;9.00;99.90;;;;;;5099456;28;20034;-63
2021/11/16 09:44:52;;;;;;;21.58;14.45;;;9.00;99.90;;;;;;5099913;28;20016;-63
2021/11/16 09:47:26;;;;;;;28.42;16.95;;;9.10;99.90;;;;;;5099248;28;20063;-63
2021/11/16 09:49:52;;;;;;;30.63;18.98;;;9.10;99.90;;;;;;5099251;28;20388;-63
2021/11/16 09:52:29;;;;;;;37.85;20.42;;;9.50;99.90;;;;;;5099342;28;20035;-63
2021/11/16 09:55:11;;;;;;;35.75;19.00;;;9.40;99.90;;;;;;5099448;28;20032;-63
2021/11/16 09:57:38;;;;;;;33.80;18.13;;;9.20;99.90;;;;;;5099451;28;20415;-63
2021/11/16 10:00:13;;;;;;;27.38;17.98;;;9.30;99.90;;;;;;5097867;28;20024;-63
2021/11/16 10:02:48;;;;;;;29.88;18.20;;;9.30;99.90;;;;;;5099143;28;20028;-63
2021/11/16 10:05:21;;;;;;;33.13;18.13;;;9.30;99.90;;;;;;5099019;28;20476;-63
2021/11/16 10:07:51;;;;;;;30.23;18.15;;;9.30;99.90;;;;;;5099114;28;20024;-63
2021/11/16 10:10:19;;;;;;;28.38;17.83;;;9.70;99.90;;;;;;5098906;28;20020;-63
2021/11/16 10:12:48;;;;;;;31.73;17.48;;;9.40;99.90;;;;;;5098953;28;20051;-63
2021/11/16 10:15:16;;;;;;;29.85;17.83;;;9.30;99.90;;;;;;5098777;28;20027;-63
2021/11/16 10:17:44;;;;;;;38.95;18.38;;;9.40;99.90;;;;;;5098994;28;20020;-63
2021/11/16 10:20:19;;;;;;;36.72;19.38;;;9.50;99.90;;;;;;5098498;28;20024;-63
2021/11/16 10:22:50;;;;;;;32.80;17.95;;;9.40;99.90;;;;;;5098492;28;20046;-63
2021/11/16 10:25:20;;;;;;;32.05;18.35;;;9.20;99.90;;;;;;5098848;28;20069;-63
2021/11/16 10:27:48;;;;;;;26.90;16.20;;;9.50;99.90;;;;;;5098546;28;20380;-63
2021/11/16 10:30:24;;;;;;;26.52;14.32;;;9.60;99.90;;;;;;5098608;28;20019;-64
2021/11/16 10:33:09;;;;;;;28.95;15.90;;;9.40;99.90;;;;;;5099446;28;20105;-63
2021/11/16 10:35:50;;;;;;;31.23;17.40;;;9.50;99.90;;;;;;5098579;28;20028;-64
2021/11/16 10:38:27;;;;;;;24.75;15.98;;;9.60;99.90;;;;;;5097846;28;20020;-63
2021/11/16 10:40:55;;;;;;;26.50;14.20;;;9.60;99.90;;;;;;5098194;28;20024;-63
2021/11/16 10:43:21;;;;;;;26.02;15.40;;;9.60;99.90;;;;;;5098366;28;20028;-63
2021/11/16 10:45:49;;;;;;;25.65;17.52;;;9.90;99.90;;;;;;5098268;28;20047;-63
2021/11/16 10:48:20;;;;;;;27.63;15.98;;;9.90;99.90;;;;;;5098328;28;20028;-63
2021/11/16 10:50:49;;;;;;;27.58;16.35;;;9.70;99.90;;;;;;5098188;28;20063;-64
2021/11/16 10:53:24;;;;;;;22.67;14.77;;;9.80;99.90;;;;;;5097104;28;20411;-63
2021/11/16 10:55:55;;;;;;;20.92;12.93;;;9.70;99.90;;;;;;5096695;28;20053;-63
2021/11/16 10:58:32;;;;;;;20.85;13.82;;;10.10;99.90;;;;;;5098291;28;20103;-63
2021/11/16 11:01:07;;;;;;;19.75;12.38;;;9.90;99.90;;;;;;5098123;28;20042;-63
2021/11/16 11:03:36;;;;;;;20.23;14.32;;;9.50;99.90;;;;;;5097882;28;20035;-63
2021/11/16 11:06:18;;;;;;;32.20;18.73;;;10.00;99.90;;;;;;5096546;28;20506;-63
2021/11/16 11:08:47;;;;;;;25.20;16.73;;;9.90;99.90;;;;;;5097818;28;20035;-63
2021/11/16 11:11:31;;;;;;;28.40;18.73;;;10.10;99.90;;;;;;5097860;28;20408;-63
2021/11/16 11:14:14;;;;;;;27.15;16.05;;;10.10;99.90;;;;;;5097926;28;20023;-63
2021/11/16 11:16:50;;;;;;;22.75;14.23;;;10.10;99.90;;;;;;5096389;28;20028;-63
2021/11/16 11:19:30;;;;;;;26.08;16.45;;;10.00;99.90;;;;;;5098097;28;20031;-63
2021/11/16 11:22:00;;;;;;;24.02;14.95;;;10.20;99.90;;;;;;5097905;28;20055;-63
2021/11/16 11:24:41;;;;;;;25.10;16.38;;;10.10;99.90;;;;;;5097678;28;20031;-63
2021/11/16 11:29:46;;;;;;;25.47;15.87;;;10.10;99.90;;;;;;5097562;28;20027;-63
2021/11/16 11:32:21;;;;;;;31.00;17.80;;;10.20;99.90;;;;;;5098347;28;20292;-63
2021/11/16 11:34:59;;;;;;;29.65;16.88;;;10.40;99.90;;;;;;5097481;28;20020;-63
2021/11/16 11:37:50;;;;;;;22.83;14.70;;;10.40;99.90;;;;;;5097706;28;20031;-63
2021/11/16 11:40:18;;;;;;;17.63;12.20;;;10.40;99.90;;;;;;5097479;28;20479;-63
2021/11/16 11:42:58;;;;;;;29.20;17.90;;;10.30;99.90;;;;;;5097318;28;20024;-63
2021/11/16 11:45:29;;;;;;;32.47;18.25;;;10.50;99.90;;;;;;5097513;28;20121;-64
2021/11/16 11:48:01;;;;;;;23.58;14.10;;;10.30;99.90;;;;;;5097620;28;20476;-64
2021/11/16 11:50:31;;;;;;;21.50;13.02;;;10.40;99.90;;;;;;5098706;28;20024;-63
2021/11/16 11:53:11;;;;;;;23.42;15.93;;;10.30;99.90;;;;;;5101625;28;20020;-63
2021/11/16 11:55:41;;;;;;;22.98;13.45;;;10.50;99.90;;;;;;5101510;28;20552;-63
2021/11/16 11:58:07;;;;;;;23.75;15.63;;;10.30;99.90;;;;;;5101600;28;20042;-63
2021/11/16 12:00:35;;;;;;;26.30;16.20;;;10.30;99.90;;;;;;5101414;28;20078;-63
2021/11/16 12:03:01;;;;;;;30.88;18.70;;;10.50;99.90;;;;;;5101440;28;20024;-64
2021/11/16 12:05:30;;;;;;;26.55;15.68;;;10.20;99.90;;;;;;5101117;28;20388;-63
2021/11/16 12:07:57;;;;;;;32.65;18.17;;;10.30;99.90;;;;;;5101448;28;20020;-64
2021/11/16 12:10:23;;;;;;;22.45;14.73;;;10.40;99.90;;;;;;5101176;28;20017;-64
2021/11/16 12:12:51;;;;;;;20.45;13.10;;;10.30;99.90;;;;;;5101401;28;20540;-63
2021/11/16 12:15:29;;;;;;;25.95;15.35;;;10.30;99.90;;;;;;5101210;28;20101;-63
2021/11/16 12:17:58;;;;;;;31.58;18.42;;;10.40;99.90;;;;;;5101228;28;20035;-63
2021/11/16 12:20:33;;;;;;;29.23;17.35;;;10.40;99.90;;;;;;5101004;28;20047;-64
2021/11/16 12:22:59;;;;;;;28.30;17.20;;;10.40;99.90;;;;;;5100714;28;20025;-63
2021/11/16 12:25:25;;;;;;;28.67;17.40;;;10.20;99.90;;;;;;5101380;28;20491;-63
2021/11/16 12:27:51;;;;;;;31.17;19.45;;;10.40;99.90;;;;;;5099615;28;20054;-63
2021/11/16 12:30:44;;;;;;;30.83;18.60;;;10.20;99.90;;;;;;5100793;28;20074;-64
2021/11/16 12:33:10;;;;;;;31.48;18.13;;;10.20;99.90;;;;;;5087934;28;20111;-63
2021/11/16 12:35:48;;;;;;;26.40;16.23;;;10.20;99.90;;;;;;5100654;28;20061;-64
2021/11/16 12:38:15;;;;;;;25.48;16.55;;;10.10;99.90;;;;;;5100762;28;20030;-64
2021/11/16 12:40:42;;;;;;;30.20;19.02;;;10.20;99.90;;;;;;5100701;28;20030;-64
2021/11/16 12:43:23;;;;;;;30.70;18.90;;;10.30;99.90;;;;;;5100706;28;20024;-63
2021/11/16 12:45:59;;;;;;;21.90;13.50;;;10.30;99.90;;;;;;5100571;28;20047;-64
2021/11/16 12:48:47;;;;;;;31.95;19.02;;;10.20;99.90;;;;;;5100785;28;20453;-64
2021/11/16 12:51:17;;;;;;;34.05;18.52;;;10.30;99.90;;;;;;5100424;28;20528;-63
2021/11/16 12:53:55;;;;;;;29.10;16.98;;;10.10;99.90;;;;;;5100460;28;20034;-64
2021/11/16 12:56:22;;;;;;;33.17;19.35;;;10.20;99.90;;;;;;5100783;28;20031;-64
2021/11/16 12:58:54;;;;;;;27.98;17.20;;;10.30;99.90;;;;;;5098982;28;20373;-63
2021/11/16 13:01:47;;;;;;;26.80;17.52;;;10.00;99.90;;;;;;5099682;28;20024;-64
2021/11/16 13:04:15;;;;;;;30.80;19.40;;;10.00;99.90;;;;;;5100479;28;20395;-63
2021/11/16 13:06:45;;;;;;;29.98;17.50;;;10.10;99.90;;;;;;5099867;28;20514;-64
2021/11/16 13:09:47;;;;;;;30.40;18.52;;;10.00;99.90;;;;;;5100141;28;20073;-64
2021/11/16 13:12:47;;;;;;;23.77;15.63;;;10.20;99.90;;;;;;5087779;28;20024;-64
2021/11/16 13:15:23;;;;;;;21.40;13.90;;;10.10;99.90;;;;;;5100004;28;20025;-64
2021/11/16 13:17:56;;;;;;;24.73;15.77;;;10.10;99.90;;;;;;5100284;28;20126;-64